Decoded Metar for OAIX ( in ) (IATA:) | Meteo·Mobile Aviation Weather
aviador You're here:

OAIX Decoded Metar

in
Report Time2018-11-19 00:58:00
UTC Time2018-11-19 01:52:32
Flight Rules vfr VFR
WindCalm
Visibility9999 m
Phenomena:N/A
Clouds:Overcast 070 Hf
Expected CloudBase > 2,400 ft AGL from Temp-Dew spread
Ceiling7,000 ft
Temp07°C
Dew Point01°C (66% RH)
AAT5.2°C
QNH1023 hPa
Raw Report
METAR OAIX 190058Z 00000KT 9999 OVC070 07/01 A3020 RMK AO2A SLP169
T00660005 $=

Extra information for OAIX:More info

Social comments